createdAt,value
2019-02-16T00:00:25.434Z,3.60
2019-02-16T00:02:55.943Z,3.53
2019-02-16T00:05:24.078Z,3.47
2019-02-16T00:07:52.614Z,3.83
2019-02-16T00:10:21.477Z,3.70
2019-02-16T00:12:50.250Z,3.50
2019-02-16T00:15:19.092Z,3.70
2019-02-16T00:17:48.105Z,3.93
2019-02-16T00:20:16.704Z,4.20
2019-02-16T00:22:45.125Z,3.60
2019-02-16T00:25:14.090Z,3.40
2019-02-16T00:27:42.364Z,3.70
2019-02-16T00:30:10.973Z,3.37
2019-02-16T00:32:39.837Z,3.27
2019-02-16T00:35:08.221Z,5.07
2019-02-16T00:37:37.259Z,3.07
2019-02-16T00:40:05.878Z,3.17
2019-02-16T00:42:34.379Z,3.60
2019-02-16T00:45:04.230Z,3.37
2019-02-16T00:47:33.069Z,3.20
2019-02-16T00:50:01.507Z,3.43
2019-02-16T00:52:29.884Z,3.23
2019-02-16T00:54:58.297Z,3.20
2019-02-16T00:57:26.649Z,3.17
2019-02-16T00:59:55.359Z,3.03
2019-02-16T01:02:24.930Z,4.12
2019-02-16T01:04:53.452Z,3.50
2019-02-16T01:07:22.337Z,3.10
2019-02-16T01:09:50.689Z,2.90
2019-02-16T01:12:19.234Z,3.30
2019-02-16T01:14:47.698Z,3.23
2019-02-16T01:17:16.117Z,2.97
2019-02-16T01:19:44.503Z,3.03
2019-02-16T01:22:12.906Z,2.80
2019-02-16T01:24:41.320Z,2.97
2019-02-16T01:27:09.798Z,3.03
2019-02-16T01:29:38.682Z,3.23
2019-02-16T01:32:07.085Z,3.07
2019-02-16T01:34:35.355Z,2.70
2019-02-16T01:37:03.662Z,2.83
2019-02-16T01:39:32.152Z,3.00
2019-02-16T01:42:00.484Z,3.13
2019-02-16T01:44:28.958Z,2.67
2019-02-16T01:46:57.287Z,3.25
2019-02-16T01:49:25.497Z,3.10
2019-02-16T01:51:54.398Z,2.77
2019-02-16T01:54:23.140Z,2.43
2019-02-16T01:56:51.879Z,2.67
2019-02-16T01:59:20.458Z,2.87
2019-02-16T02:01:49.504Z,2.87
2019-02-16T02:04:19.244Z,2.87
2019-02-16T02:06:48.087Z,2.67
2019-02-16T02:09:16.524Z,2.90
2019-02-16T02:11:45.478Z,2.90
2019-02-16T02:14:14.053Z,2.50
2019-02-16T02:16:42.796Z,2.73
2019-02-16T02:19:11.313Z,3.00
2019-02-16T02:21:41.472Z,3.00
2019-02-16T02:24:10.136Z,2.70
2019-02-16T02:26:38.719Z,2.43
2019-02-16T02:29:07.207Z,3.13
2019-02-16T02:31:37.420Z,3.03
2019-02-16T02:34:06.564Z,2.90
2019-02-16T02:36:35.003Z,2.80
2019-02-16T02:39:04.894Z,2.70
2019-02-16T02:41:35.988Z,2.90
2019-02-16T02:44:04.851Z,3.50
2019-02-16T02:46:33.789Z,2.80
2019-02-16T02:49:02.531Z,2.80
2019-02-16T02:51:31.378Z,2.37
2019-02-16T02:54:00.203Z,2.87
2019-02-16T02:56:29.102Z,3.00
2019-02-16T02:58:57.510Z,3.10
2019-02-16T03:01:25.907Z,2.80
2019-02-16T03:03:54.089Z,2.90
2019-02-16T03:06:23.881Z,3.07
2019-02-16T03:08:52.213Z,3.60
2019-02-16T03:11:20.697Z,3.00
2019-02-16T03:13:49.282Z,3.30
2019-02-16T03:16:17.682Z,3.57
2019-02-16T03:18:45.921Z,3.63
2019-02-16T03:21:14.839Z,3.10
2019-02-16T03:23:43.466Z,3.57
2019-02-16T03:26:30.219Z,3.73
2019-02-16T03:29:07.431Z,3.87
2019-02-16T03:31:44.440Z,3.33
2019-02-16T03:34:23.611Z,3.47
2019-02-16T03:36:58.392Z,3.63
2019-02-16T03:39:31.535Z,3.23
2019-02-16T03:42:00.492Z,3.40
2019-02-16T03:44:28.998Z,3.73
2019-02-16T03:46:57.900Z,3.70
2019-02-16T03:49:26.839Z,3.43
2019-02-16T03:51:56.036Z,3.57
2019-02-16T03:54:24.542Z,3.63
2019-02-16T03:56:53.165Z,3.97
2019-02-16T03:59:21.537Z,3.97
2019-02-16T04:01:50.322Z,3.80
2019-02-16T04:04:18.984Z,4.03
2019-02-16T04:06:48.145Z,3.93
2019-02-16T04:09:16.671Z,4.30
2019-02-16T04:11:45.316Z,3.70
2019-02-16T04:14:14.080Z,5.13
2019-02-16T04:16:42.745Z,4.37
2019-02-16T04:19:11.578Z,4.00
2019-02-16T04:21:40.028Z,4.67
2019-02-16T04:24:08.558Z,4.63
2019-02-16T04:26:37.489Z,4.70
2019-02-16T04:29:06.171Z,4.70
2019-02-16T04:31:34.598Z,5.10
2019-02-16T04:34:03.181Z,5.07
2019-02-16T04:36:32.233Z,5.00
2019-02-16T04:39:00.919Z,4.93
2019-02-16T04:41:29.558Z,4.67
2019-02-16T04:43:58.169Z,6.20
2019-02-16T04:46:26.668Z,5.63
2019-02-16T04:48:55.305Z,5.33
2019-02-16T04:51:24.769Z,5.63
2019-02-16T04:53:53.246Z,5.30
2019-02-16T04:56:21.612Z,5.63
2019-02-16T04:58:50.062Z,5.50
2019-02-16T05:01:18.379Z,5.30
2019-02-16T05:03:47.190Z,5.77
2019-02-16T05:06:15.592Z,5.40
2019-02-16T05:08:44.091Z,5.13
2019-02-16T05:11:12.913Z,5.47
2019-02-16T05:13:41.864Z,5.73
2019-02-16T05:16:10.285Z,5.30
2019-02-16T05:18:39.113Z,5.40
2019-02-16T05:21:07.812Z,5.90
2019-02-16T05:23:36.459Z,5.73
2019-02-16T05:26:04.982Z,6.10
2019-02-16T05:28:33.298Z,6.30
2019-02-16T05:31:02.348Z,6.17
2019-02-16T05:33:30.931Z,5.23
2019-02-16T05:35:59.486Z,5.73
2019-02-16T05:38:28.826Z,6.33
2019-02-16T05:40:57.652Z,6.30
2019-02-16T05:43:26.094Z,6.43
2019-02-16T05:45:55.111Z,6.57
2019-02-16T05:48:24.118Z,6.73
2019-02-16T05:50:53.111Z,7.40
2019-02-16T05:53:22.049Z,8.17
2019-02-16T05:55:50.393Z,8.17
2019-02-16T05:58:18.804Z,8.60
2019-02-16T06:00:47.389Z,11.23
2019-02-16T06:03:15.895Z,9.60
2019-02-16T06:05:45.449Z,8.27
2019-02-16T06:08:13.811Z,8.97
2019-02-16T06:10:42.210Z,8.20
2019-02-16T06:13:10.921Z,8.10
2019-02-16T06:15:39.425Z,8.13
2019-02-16T06:18:08.082Z,7.87
2019-02-16T06:20:37.465Z,7.23
2019-02-16T06:23:06.335Z,7.63
2019-02-16T06:25:34.995Z,7.63
2019-02-16T06:28:03.706Z,8.53
2019-02-16T06:30:33.241Z,9.53
2019-02-16T06:33:01.589Z,10.63
2019-02-16T06:35:47.596Z,9.53
2019-02-16T06:38:16.117Z,8.37
2019-02-16T06:40:45.202Z,8.50
2019-02-16T06:43:13.693Z,7.93
2019-02-16T06:45:42.572Z,7.37
2019-02-16T06:48:10.838Z,7.87
2019-02-16T06:50:39.394Z,8.30
2019-02-16T06:53:13.406Z,7.63
2019-02-16T06:55:57.697Z,8.50
2019-02-16T06:58:26.196Z,8.90
2019-02-16T07:00:54.663Z,8.80
2019-02-16T07:03:23.010Z,8.20
2019-02-16T07:05:51.429Z,8.47
2019-02-16T07:08:45.041Z,7.80
2019-02-16T07:11:13.780Z,8.20
2019-02-16T07:13:42.384Z,8.67
2019-02-16T07:16:28.915Z,8.93
2019-02-16T07:19:01.792Z,7.13
2019-02-16T07:21:31.255Z,7.43
2019-02-16T07:23:59.641Z,9.37
2019-02-16T07:26:28.517Z,7.30
2019-02-16T07:28:57.141Z,7.07
2019-02-16T07:31:25.557Z,7.57
2019-02-16T07:33:54.206Z,8.20
2019-02-16T07:36:22.858Z,8.23
2019-02-16T07:38:51.533Z,9.37
2019-02-16T07:41:20.300Z,8.33
2019-02-16T07:44:11.186Z,8.13
2019-02-16T07:46:47.308Z,7.93
2019-02-16T07:49:30.353Z,8.47
2019-02-16T07:52:09.884Z,8.57
2019-02-16T07:54:51.712Z,7.33
2019-02-16T07:57:45.969Z,7.70
2019-02-16T08:00:30.857Z,7.97
2019-02-16T08:03:19.141Z,7.27
2019-02-16T08:06:05.396Z,7.37
2019-02-16T08:08:41.645Z,7.40
2019-02-16T08:11:22.725Z,6.83
2019-02-16T08:14:11.083Z,6.67
2019-02-16T08:17:08.354Z,6.67
2019-02-16T08:19:45.097Z,7.50
2019-02-16T08:22:19.824Z,6.30
2019-02-16T08:25:06.654Z,7.10
2019-02-16T08:27:57.455Z,6.67
2019-02-16T08:30:32.792Z,7.17
2019-02-16T08:33:27.083Z,7.80
2019-02-16T08:36:04.932Z,6.87
2019-02-16T08:39:08.078Z,5.90
2019-02-16T08:41:56.426Z,6.00
2019-02-16T08:44:50.302Z,5.47
2019-02-16T08:47:41.413Z,5.80
2019-02-16T08:50:25.766Z,5.30
2019-02-16T08:53:05.349Z,5.50
2019-02-16T08:55:53.243Z,4.70
2019-02-16T08:58:37.085Z,5.17
2019-02-16T09:01:40.076Z,5.30
2019-02-16T09:04:36.682Z,4.47
2019-02-16T09:07:34.590Z,4.80
2019-02-16T09:10:23.240Z,5.30
2019-02-16T09:13:14.268Z,4.97
2019-02-16T09:16:14.677Z,5.70
2019-02-16T09:18:58.102Z,5.00
2019-02-16T09:21:42.965Z,5.10
2019-02-16T09:24:29.933Z,5.78
2019-02-16T09:27:18.236Z,5.30
2019-02-16T09:30:04.175Z,5.17
2019-02-16T09:33:07.221Z,4.80
2019-02-16T09:36:10.616Z,5.03
2019-02-16T09:39:10.946Z,4.97
2019-02-16T09:41:59.597Z,4.40
2019-02-16T09:44:56.547Z,5.10
2019-02-16T09:47:32.936Z,4.50
2019-02-16T09:50:10.585Z,5.30
2019-02-16T09:53:06.228Z,6.12
2019-02-16T09:55:54.769Z,5.00
2019-02-16T09:59:00.738Z,5.70
2019-02-16T10:01:43.746Z,5.47
2019-02-16T10:04:34.363Z,5.73
2019-02-16T10:07:34.729Z,5.93
2019-02-16T10:10:11.418Z,5.67
2019-02-16T10:12:46.087Z,7.05
2019-02-16T10:15:33.000Z,5.57
2019-02-16T10:18:20.118Z,5.93
2019-02-16T10:21:02.221Z,5.60
2019-02-16T10:24:02.432Z,6.13
2019-02-16T10:26:43.991Z,6.43
2019-02-16T10:29:41.186Z,6.77
2019-02-16T10:32:41.820Z,6.13
2019-02-16T10:35:32.933Z,5.97
2019-02-16T10:38:18.538Z,5.73
2019-02-16T10:41:09.978Z,6.10
2019-02-16T10:44:06.925Z,5.97
2019-02-16T10:46:54.001Z,5.83
2019-02-16T10:49:29.433Z,5.83
2019-02-16T10:52:11.850Z,6.03
2019-02-16T10:55:28.256Z,6.33
2019-02-16T10:58:12.685Z,5.57
2019-02-16T11:01:00.647Z,5.70
2019-02-16T11:03:36.480Z,5.47
2019-02-16T11:06:25.096Z,5.40
2019-02-16T11:09:13.399Z,6.10
2019-02-16T11:11:55.037Z,6.10
2019-02-16T11:14:34.825Z,5.33
2019-02-16T11:17:22.772Z,5.07
2019-02-16T11:20:13.885Z,5.43
2019-02-16T11:23:00.080Z,5.93
2019-02-16T11:25:37.620Z,6.97
2019-02-16T11:28:34.320Z,5.93
2019-02-16T11:31:23.169Z,6.17
2019-02-16T11:34:07.707Z,6.50
2019-02-16T11:36:55.868Z,5.83
2019-02-16T11:39:46.476Z,5.20
2019-02-16T11:42:22.725Z,5.83
2019-02-16T11:44:57.102Z,5.17
2019-02-16T11:47:43.866Z,5.50
2019-02-16T11:50:39.017Z,5.60
2019-02-16T11:53:32.850Z,5.53
2019-02-16T11:56:23.653Z,5.97
2019-02-16T11:59:09.347Z,6.83
2019-02-16T12:01:44.418Z,5.50
2019-02-16T12:04:32.719Z,5.27
2019-02-16T12:07:20.453Z,6.63
2019-02-16T12:10:20.472Z,6.17
2019-02-16T12:13:07.591Z,6.07
2019-02-16T12:16:04.845Z,5.17
2019-02-16T12:18:55.957Z,5.63
2019-02-16T12:21:49.832Z,7.37
2019-02-16T12:24:32.081Z,5.23
2019-02-16T12:27:20.997Z,5.87
2019-02-16T12:30:08.730Z,5.63
2019-02-16T12:33:05.984Z,7.20
2019-02-16T12:36:06.006Z,5.80
2019-02-16T12:38:49.237Z,7.07
2019-02-16T12:41:40.242Z,6.30
2019-02-16T12:44:26.016Z,6.03
2019-02-16T12:47:16.934Z,6.13
2019-02-16T12:49:52.881Z,6.30
2019-02-16T12:52:43.797Z,5.53
2019-02-16T12:55:28.348Z,5.97
2019-02-16T12:58:05.790Z,6.20
2019-02-16T13:01:05.767Z,5.60
2019-02-16T13:03:43.933Z,5.63
2019-02-16T13:06:33.760Z,6.53
2019-02-16T13:09:08.989Z,5.60
2019-02-16T13:11:51.601Z,7.40
2019-02-16T13:14:30.329Z,7.10
2019-02-16T13:17:26.969Z,6.40
2019-02-16T13:20:13.166Z,7.47
2019-02-16T13:23:21.787Z,5.80
2019-02-16T13:26:05.581Z,5.87
2019-02-16T13:28:50.373Z,7.83
2019-02-16T13:31:37.088Z,7.08
2019-02-16T13:34:26.664Z,6.05
2019-02-16T13:37:32.122Z,6.33
2019-02-16T13:40:26.015Z,6.00
2019-02-16T13:43:19.571Z,6.95
2019-02-16T13:46:06.379Z,6.45
2019-02-16T13:48:42.789Z,6.50
2019-02-16T13:51:33.857Z,7.65
2019-02-16T13:54:16.673Z,7.00
2019-02-16T13:57:07.785Z,6.47
2019-02-16T13:59:43.580Z,5.75
2019-02-16T14:02:23.750Z,5.90
2019-02-16T14:04:59.950Z,7.30
2019-02-16T14:07:52.060Z,7.47
2019-02-16T14:10:40.031Z,6.40
2019-02-16T14:13:20.278Z,7.85
2019-02-16T14:16:14.573Z,7.05
2019-02-16T14:18:44.121Z,9.95
2019-02-16T14:21:12.728Z,13.98
2019-02-16T14:23:41.196Z,10.82
2019-02-16T14:26:12.671Z,7.55
2019-02-16T14:28:41.217Z,10.63
2019-02-16T14:31:10.110Z,9.30
2019-02-16T14:33:38.904Z,7.33
2019-02-16T14:36:07.439Z,7.87
2019-02-16T14:38:44.416Z,7.12
2019-02-16T14:41:13.409Z,8.58
2019-02-16T14:43:42.006Z,7.15
2019-02-16T14:46:10.730Z,8.03
2019-02-16T14:48:39.466Z,7.37
2019-02-16T14:51:09.068Z,6.73
2019-02-16T14:53:37.795Z,6.60
2019-02-16T14:56:06.538Z,8.37
2019-02-16T14:58:35.746Z,8.27
2019-02-16T15:01:05.020Z,7.10
2019-02-16T15:03:33.854Z,7.50
2019-02-16T15:06:02.634Z,9.17
2019-02-16T15:08:31.143Z,8.27
2019-02-16T15:10:59.838Z,6.33
2019-02-16T15:13:29.092Z,6.77
2019-02-16T15:16:02.691Z,7.40
2019-02-16T15:18:32.222Z,6.13
2019-02-16T15:21:04.105Z,6.70
2019-02-16T15:23:32.482Z,6.63
2019-02-16T15:26:01.637Z,5.67
2019-02-16T15:28:30.423Z,7.87
2019-02-16T15:30:59.005Z,6.17
2019-02-16T15:33:27.489Z,11.13
2019-02-16T15:35:56.221Z,14.33
2019-02-16T15:38:25.009Z,7.60
2019-02-16T15:40:53.461Z,8.70
2019-02-16T15:43:21.877Z,6.30
2019-02-16T15:45:50.607Z,6.43
2019-02-16T15:48:19.248Z,6.53
2019-02-16T15:50:48.094Z,8.45
2019-02-16T15:53:16.922Z,7.50
2019-02-16T15:55:46.891Z,6.73
2019-02-16T15:58:15.771Z,9.00
2019-02-16T16:00:44.776Z,8.07
2019-02-16T16:03:13.558Z,8.43
2019-02-16T16:05:42.244Z,9.63
2019-02-16T16:08:45.339Z,7.87
2019-02-16T16:11:23.433Z,8.50
2019-02-16T16:14:06.518Z,9.37
2019-02-16T16:16:54.189Z,8.40
2019-02-16T16:19:46.129Z,9.13
2019-02-16T16:22:34.476Z,8.60
2019-02-16T16:25:14.838Z,8.57
2019-02-16T16:27:51.388Z,8.17
2019-02-16T16:30:39.243Z,9.37
2019-02-16T16:33:27.587Z,9.20
2019-02-16T16:36:18.392Z,8.57
2019-02-16T16:38:57.009Z,9.37
2019-02-16T16:41:35.731Z,8.40
2019-02-16T16:44:39.131Z,8.87
2019-02-16T16:47:27.786Z,10.07
2019-02-16T16:50:03.744Z,12.60
2019-02-16T16:53:00.341Z,10.93
2019-02-16T16:55:46.683Z,11.20
2019-02-16T16:58:37.487Z,11.27
2019-02-16T17:01:38.737Z,10.53
2019-02-16T17:04:29.543Z,13.17
2019-02-16T17:07:26.492Z,14.33
2019-02-16T17:10:20.365Z,15.27
2019-02-16T17:13:08.466Z,16.23
2019-02-16T17:15:54.527Z,16.10
2019-02-16T17:18:57.080Z,17.03
2019-02-16T17:21:43.890Z,16.43
2019-02-16T17:24:34.698Z,16.50
2019-02-16T17:27:32.577Z,21.85
2019-02-16T17:30:21.527Z,23.97
2019-02-16T17:33:27.997Z,19.37
2019-02-16T17:36:05.940Z,20.00
2019-02-16T17:39:08.994Z,19.90
2019-02-16T17:42:03.198Z,20.43
2019-02-16T17:45:06.575Z,21.87
2019-02-16T17:47:57.068Z,24.92
2019-02-16T17:50:45.419Z,25.07
2019-02-16T17:53:33.459Z,25.47
2019-02-16T17:56:16.165Z,21.90
2019-02-16T17:58:50.848Z,22.90
2019-02-16T18:01:37.610Z,18.30
2019-02-16T18:04:44.695Z,21.83
2019-02-16T18:07:33.042Z,16.67
2019-02-16T18:10:25.382Z,17.77
2019-02-16T18:13:11.886Z,17.20
2019-02-16T18:15:52.453Z,17.40
2019-02-16T18:18:43.364Z,18.30
2019-02-16T18:21:19.660Z,19.77
2019-02-16T18:23:55.760Z,20.23
2019-02-16T18:26:56.834Z,21.63
2019-02-16T18:29:33.464Z,20.03
2019-02-16T18:32:20.211Z,21.37
2019-02-16T18:35:24.029Z,20.17
2019-02-16T18:38:13.187Z,20.83
2019-02-16T18:41:00.621Z,21.40
2019-02-16T18:43:41.438Z,21.13
2019-02-16T18:46:18.576Z,21.77
2019-02-16T18:49:09.680Z,21.73
2019-02-16T18:51:48.061Z,20.53
2019-02-16T18:54:32.241Z,21.70
2019-02-16T18:57:15.999Z,23.03
2019-02-16T18:59:55.194Z,23.33
2019-02-16T19:02:36.131Z,23.23
2019-02-16T19:05:24.752Z,22.90
2019-02-16T19:08:08.550Z,23.00
2019-02-16T19:11:08.802Z,23.27
2019-02-16T19:13:57.458Z,22.27
2019-02-16T19:16:45.800Z,23.63
2019-02-16T19:19:39.990Z,27.43
2019-02-16T19:22:34.171Z,33.27
2019-02-16T19:25:12.113Z,30.77
2019-02-16T19:28:08.713Z,30.40
2019-02-16T19:30:46.970Z,27.57
2019-02-16T19:33:41.925Z,29.07
2019-02-16T19:36:19.305Z,27.00
2019-02-16T19:39:13.740Z,26.23
2019-02-16T19:42:01.233Z,28.80
2019-02-16T19:44:48.039Z,27.70
2019-02-16T19:47:38.550Z,27.43
2019-02-16T19:50:36.714Z,28.30
2019-02-16T19:53:27.825Z,27.80
2019-02-16T19:56:33.327Z,27.70
2019-02-16T19:59:15.273Z,28.40
2019-02-16T20:02:06.383Z,33.43
2019-02-16T20:04:57.187Z,39.40
2019-02-16T20:07:43.910Z,33.43
2019-02-16T20:10:41.253Z,31.90
2019-02-16T20:13:24.274Z,31.40
2019-02-16T20:16:02.589Z,31.50
2019-02-16T20:18:49.401Z,36.63
2019-02-16T20:21:37.440Z,36.63
2019-02-16T20:24:40.530Z,38.03
2019-02-16T20:27:37.436Z,37.53
2019-02-16T20:30:23.738Z,36.07
2019-02-16T20:33:01.263Z,34.83
2019-02-16T20:35:49.974Z,34.73
2019-02-16T20:38:41.342Z,35.27
2019-02-16T20:41:17.853Z,35.40
2019-02-16T20:44:18.342Z,33.50
2019-02-16T20:46:57.979Z,35.43
2019-02-16T20:49:37.555Z,34.13
2019-02-16T20:52:26.639Z,35.37
2019-02-16T20:55:15.761Z,40.33
2019-02-16T20:57:53.765Z,38.50
2019-02-16T21:00:31.917Z,39.47
2019-02-16T21:03:12.989Z,38.87
2019-02-16T21:06:00.881Z,36.13
2019-02-16T21:08:49.534Z,37.83
2019-02-16T21:11:32.036Z,36.37
2019-02-16T21:14:25.920Z,36.63
2019-02-16T21:17:24.461Z,36.87
2019-02-16T21:20:11.422Z,36.83
2019-02-16T21:22:50.148Z,39.83
2019-02-16T21:25:56.874Z,48.15
2019-02-16T21:28:56.842Z,43.97
2019-02-16T21:31:39.201Z,39.67
2019-02-16T21:34:29.730Z,45.00
2019-02-16T21:37:15.010Z,43.47
2019-02-16T21:40:02.538Z,39.67
2019-02-16T21:42:48.278Z,35.37
2019-02-16T21:45:28.794Z,40.12
2019-02-16T21:48:15.605Z,38.50
2019-02-16T21:51:21.221Z,32.87
2019-02-16T21:54:03.596Z,32.00
2019-02-16T21:56:51.705Z,32.33
2019-02-16T21:59:47.608Z,32.57
2019-02-16T22:02:40.985Z,29.03
2019-02-16T22:05:21.249Z,29.60
2019-02-16T22:08:13.739Z,28.43
2019-02-16T22:11:00.503Z,28.30
2019-02-16T22:13:29.964Z,28.70
2019-02-16T22:15:58.798Z,28.03
2019-02-16T22:18:27.790Z,26.90
2019-02-16T22:20:56.361Z,27.00
2019-02-16T22:23:25.104Z,26.97
2019-02-16T22:25:54.392Z,27.27
2019-02-16T22:28:30.473Z,28.67
2019-02-16T22:30:54.060Z,29.07
2019-02-16T22:33:23.285Z,29.80
2019-02-16T22:35:52.221Z,31.52
2019-02-16T22:38:21.303Z,30.43
2019-02-16T22:40:49.917Z,27.17
2019-02-16T22:43:18.565Z,27.50
2019-02-16T22:45:47.327Z,24.33
2019-02-16T22:48:18.982Z,26.07
2019-02-16T22:50:48.185Z,26.27
2019-02-16T22:53:22.751Z,25.00
2019-02-16T22:55:51.222Z,23.83
2019-02-16T22:58:28.621Z,21.93
2019-02-16T23:01:09.553Z,21.43
2019-02-16T23:03:57.588Z,22.07
2019-02-16T23:06:27.657Z,22.67
2019-02-16T23:08:56.778Z,20.10
2019-02-16T23:11:27.456Z,18.17
2019-02-16T23:13:57.096Z,18.87
2019-02-16T23:16:25.522Z,17.33
2019-02-16T23:18:54.310Z,18.27
2019-02-16T23:21:22.941Z,17.33
2019-02-16T23:23:51.347Z,18.03
2019-02-16T23:26:19.909Z,18.30
2019-02-16T23:28:49.264Z,18.20
2019-02-16T23:31:19.631Z,16.70
2019-02-16T23:33:48.270Z,17.27
2019-02-16T23:36:17.262Z,16.70
2019-02-16T23:38:45.879Z,15.80
2019-02-16T23:41:14.333Z,15.83
2019-02-16T23:43:42.841Z,16.23
2019-02-16T23:46:11.353Z,17.20
2019-02-16T23:48:39.929Z,16.37
2019-02-16T23:51:08.354Z,17.13
2019-02-16T23:53:39.235Z,16.43
2019-02-16T23:56:11.534Z,17.23
2019-02-16T23:58:48.922Z,16.63
